sensor_id;sensor_type;location;lat;lon;timestamp;pressure;altitude;pressure_sealevel;temperature;humidity
21361;BME280;10839;43.206;23.550;2023-02-17T00:01:22;97964.88;;;6.40;58.93
21361;BME280;10839;43.206;23.550;2023-02-17T00:03:49;97957.97;;;6.47;58.63
21361;BME280;10839;43.206;23.550;2023-02-17T00:06:19;97961.94;;;6.61;57.54
21361;BME280;10839;43.206;23.550;2023-02-17T00:08:45;97963.97;;;6.49;57.54
21361;BME280;10839;43.206;23.550;2023-02-17T00:11:12;97964.28;;;6.46;57.40
21361;BME280;10839;43.206;23.550;2023-02-17T00:13:38;97971.66;;;6.79;56.08
21361;BME280;10839;43.206;23.550;2023-02-17T00:16:06;97960.50;;;6.66;56.51
21361;BME280;10839;43.206;23.550;2023-02-17T00:18:33;97955.28;;;6.47;56.55
21361;BME280;10839;43.206;23.550;2023-02-17T00:20:59;97948.41;;;6.62;56.88
21361;BME280;10839;43.206;23.550;2023-02-17T00:23:24;97953.19;;;7.03;52.74
21361;BME280;10839;43.206;23.550;2023-02-17T00:25:50;97958.53;;;6.68;55.38
21361;BME280;10839;43.206;23.550;2023-02-17T00:28:16;97951.63;;;6.48;56.24
21361;BME280;10839;43.206;23.550;2023-02-17T00:30:42;97952.94;;;6.62;55.41
21361;BME280;10839;43.206;23.550;2023-02-17T00:33:08;97941.69;;;6.58;54.92
21361;BME280;10839;43.206;23.550;2023-02-17T00:35:38;97951.31;;;6.51;54.88
21361;BME280;10839;43.206;23.550;2023-02-17T00:38:05;97945.84;;;6.70;54.90
21361;BME280;10839;43.206;23.550;2023-02-17T00:40:32;97949.69;;;6.85;53.93
21361;BME280;10839;43.206;23.550;2023-02-17T00:42:57;97945.53;;;6.73;53.38
21361;BME280;10839;43.206;23.550;2023-02-17T00:45:24;97945.31;;;6.67;54.07
21361;BME280;10839;43.206;23.550;2023-02-17T00:47:50;97937.81;;;6.88;53.28
21361;BME280;10839;43.206;23.550;2023-02-17T00:50:15;97933.91;;;6.82;53.66
21361;BME280;10839;43.206;23.550;2023-02-17T00:52:41;97919.84;;;6.45;54.43
21361;BME280;10839;43.206;23.550;2023-02-17T00:55:08;97923.22;;;6.82;53.19
21361;BME280;10839;43.206;23.550;2023-02-17T00:57:35;97933.91;;;7.17;51.41
21361;BME280;10839;43.206;23.550;2023-02-17T01:00:00;97926.81;;;6.91;52.41
21361;BME280;10839;43.206;23.550;2023-02-17T01:02:26;97921.69;;;6.97;50.91
21361;BME280;10839;43.206;23.550;2023-02-17T01:04:52;97935.72;;;7.34;49.70
21361;BME280;10839;43.206;23.550;2023-02-17T01:07:18;97925.56;;;7.38;49.20
21361;BME280;10839;43.206;23.550;2023-02-17T01:09:45;97933.38;;;7.14;50.71
21361;BME280;10839;43.206;23.550;2023-02-17T01:12:11;97922.59;;;7.23;50.03
21361;BME280;10839;43.206;23.550;2023-02-17T01:14:37;97920.09;;;7.47;48.79
21361;BME280;10839;43.206;23.550;2023-02-17T01:17:03;97912.38;;;7.01;50.09
21361;BME280;10839;43.206;23.550;2023-02-17T01:19:29;97905.34;;;6.65;50.90
21361;BME280;10839;43.206;23.550;2023-02-17T01:21:54;97904.09;;;7.12;50.07
21361;BME280;10839;43.206;23.550;2023-02-17T01:24:20;97904.25;;;7.28;50.17
21361;BME280;10839;43.206;23.550;2023-02-17T01:26:46;97899.50;;;7.22;50.97
21361;BME280;10839;43.206;23.550;2023-02-17T01:29:12;97896.19;;;6.85;52.10
21361;BME280;10839;43.206;23.550;2023-02-17T01:31:39;97903.53;;;6.83;52.81
21361;BME280;10839;43.206;23.550;2023-02-17T01:34:05;97893.03;;;6.72;53.01
21361;BME280;10839;43.206;23.550;2023-02-17T01:36:31;97888.59;;;6.45;53.97
21361;BME280;10839;43.206;23.550;2023-02-17T01:38:57;97895.03;;;6.70;53.78
21361;BME280;10839;43.206;23.550;2023-02-17T01:41:26;97884.72;;;6.75;53.80
21361;BME280;10839;43.206;23.550;2023-02-17T01:44:25;97885.31;;;6.69;53.57
21361;BME280;10839;43.206;23.550;2023-02-17T01:46:53;97882.88;;;6.58;54.08
21361;BME280;10839;43.206;23.550;2023-02-17T01:54:45;97877.22;;;6.96;52.58
21361;BME280;10839;43.206;23.550;2023-02-17T01:57:15;97871.69;;;7.41;50.74
21361;BME280;10839;43.206;23.550;2023-02-17T01:59:45;97882.56;;;6.96;52.54
21361;BME280;10839;43.206;23.550;2023-02-17T02:02:11;97887.91;;;6.61;54.17
21361;BME280;10839;43.206;23.550;2023-02-17T02:04:42;97885.78;;;6.82;53.25
21361;BME280;10839;43.206;23.550;2023-02-17T02:07:15;97890.00;;;6.85;53.34
21361;BME280;10839;43.206;23.550;2023-02-17T02:09:48;97892.50;;;6.51;54.74
21361;BME280;10839;43.206;23.550;2023-02-17T02:12:19;97897.63;;;6.80;54.04
21361;BME280;10839;43.206;23.550;2023-02-17T02:14:46;97894.41;;;6.76;53.97
21361;BME280;10839;43.206;23.550;2023-02-17T02:20:44;97892.56;;;6.94;53.84
21361;BME280;10839;43.206;23.550;2023-02-17T02:34:22;97895.72;;;6.10;58.46
21361;BME280;10839;43.206;23.550;2023-02-17T02:37:00;97882.13;;;6.48;57.52
21361;BME280;10839;43.206;23.550;2023-02-17T02:39:49;97901.28;;;6.43;57.08
21361;BME280;10839;43.206;23.550;2023-02-17T02:42:20;97890.72;;;6.24;57.71
21361;BME280;10839;43.206;23.550;2023-02-17T02:44:47;97890.84;;;6.50;57.33
21361;BME280;10839;43.206;23.550;2023-02-17T02:50:47;97894.41;;;6.14;58.68
21361;BME280;10839;43.206;23.550;2023-02-17T02:56:34;97889.59;;;6.27;59.05
21361;BME280;10839;43.206;23.550;2023-02-17T02:59:25;97881.25;;;6.03;59.80
21361;BME280;10839;43.206;23.550;2023-02-17T03:11:05;97874.53;;;7.39;53.36
21361;BME280;10839;43.206;23.550;2023-02-17T03:13:35;97864.44;;;7.08;53.73
21361;BME280;10839;43.206;23.550;2023-02-17T03:16:07;97883.75;;;7.19;53.36
21361;BME280;10839;43.206;23.550;2023-02-17T03:18:34;97879.25;;;7.45;52.75
21361;BME280;10839;43.206;23.550;2023-02-17T03:21:09;97877.25;;;7.47;52.17
21361;BME280;10839;43.206;23.550;2023-02-17T03:23:40;97876.94;;;7.25;52.54
21361;BME280;10839;43.206;23.550;2023-02-17T03:26:06;97884.59;;;7.02;53.07
21361;BME280;10839;43.206;23.550;2023-02-17T03:28:31;97872.94;;;7.54;51.61
21361;BME280;10839;43.206;23.550;2023-02-17T03:30:57;97876.19;;;7.40;53.07
21361;BME280;10839;43.206;23.550;2023-02-17T03:33:23;97883.25;;;6.98;54.34
21361;BME280;10839;43.206;23.550;2023-02-17T03:35:51;97873.84;;;7.12;54.17
21361;BME280;10839;43.206;23.550;2023-02-17T03:38:16;97886.09;;;7.40;53.96
21361;BME280;10839;43.206;23.550;2023-02-17T03:40:42;97889.75;;;7.39;53.49
21361;BME280;10839;43.206;23.550;2023-02-17T03:43:08;97875.53;;;7.38;52.67
21361;BME280;10839;43.206;23.550;2023-02-17T03:45:37;97864.56;;;7.49;52.18
21361;BME280;10839;43.206;23.550;2023-02-17T03:48:03;97873.22;;;7.77;51.89
21361;BME280;10839;43.206;23.550;2023-02-17T03:50:30;97879.75;;;7.74;52.03
21361;BME280;10839;43.206;23.550;2023-02-17T03:52:55;97878.38;;;7.37;53.36
21361;BME280;10839;43.206;23.550;2023-02-17T03:55:21;97899.19;;;7.25;53.38
21361;BME280;10839;43.206;23.550;2023-02-17T03:57:47;97876.06;;;7.75;52.13
21361;BME280;10839;43.206;23.550;2023-02-17T04:00:13;97877.13;;;7.82;52.13
21361;BME280;10839;43.206;23.550;2023-02-17T04:02:39;97885.34;;;7.55;52.54
21361;BME280;10839;43.206;23.550;2023-02-17T04:05:05;97884.19;;;7.32;53.29
21361;BME280;10839;43.206;23.550;2023-02-17T04:07:31;97896.78;;;7.65;52.50
21361;BME280;10839;43.206;23.550;2023-02-17T04:09:57;97890.16;;;7.77;52.14
21361;BME280;10839;43.206;23.550;2023-02-17T04:12:23;97888.09;;;7.63;51.52
21361;BME280;10839;43.206;23.550;2023-02-17T04:14:48;97898.47;;;7.41;52.68
21361;BME280;10839;43.206;23.550;2023-02-17T04:17:14;97886.66;;;7.51;53.24
21361;BME280;10839;43.206;23.550;2023-02-17T04:19:40;97891.63;;;7.72;53.03
21361;BME280;10839;43.206;23.550;2023-02-17T04:22:06;97906.00;;;7.45;53.85
21361;BME280;10839;43.206;23.550;2023-02-17T04:24:34;97897.94;;;7.37;54.74
21361;BME280;10839;43.206;23.550;2023-02-17T04:27:03;97902.84;;;7.24;54.06
21361;BME280;10839;43.206;23.550;2023-02-17T04:29:29;97904.84;;;7.22;53.84
21361;BME280;10839;43.206;23.550;2023-02-17T04:31:55;97906.94;;;6.76;54.65
21361;BME280;10839;43.206;23.550;2023-02-17T04:34:20;97901.97;;;6.98;54.36
21361;BME280;10839;43.206;23.550;2023-02-17T04:36:46;97911.91;;;7.06;53.94
21361;BME280;10839;43.206;23.550;2023-02-17T04:39:12;97906.38;;;7.07;53.35
21361;BME280;10839;43.206;23.550;2023-02-17T04:41:38;97915.03;;;7.01;53.92
21361;BME280;10839;43.206;23.550;2023-02-17T04:44:03;97915.00;;;7.19;53.97
21361;BME280;10839;43.206;23.550;2023-02-17T04:46:29;97916.25;;;7.24;53.01
21361;BME280;10839;43.206;23.550;2023-02-17T04:48:55;97918.63;;;6.92;53.99
21361;BME280;10839;43.206;23.550;2023-02-17T04:51:21;97919.78;;;7.07;53.89
21361;BME280;10839;43.206;23.550;2023-02-17T04:53:47;97918.22;;;7.22;53.61
21361;BME280;10839;43.206;23.550;2023-02-17T04:56:13;97921.69;;;6.97;53.86
21361;BME280;10839;43.206;23.550;2023-02-17T04:58:38;97922.00;;;7.12;53.31
21361;BME280;10839;43.206;23.550;2023-02-17T05:01:04;97922.00;;;7.55;52.63
21361;BME280;10839;43.206;23.550;2023-02-17T05:03:30;97917.25;;;7.74;52.23
21361;BME280;10839;43.206;23.550;2023-02-17T05:05:56;97925.44;;;7.47;52.58
21361;BME280;10839;43.206;23.550;2023-02-17T05:08:22;97923.47;;;7.49;52.80
21361;BME280;10839;43.206;23.550;2023-02-17T05:10:50;97923.75;;;7.98;51.35
21361;BME280;10839;43.206;23.550;2023-02-17T05:13:17;97912.50;;;7.94;51.69
21361;BME280;10839;43.206;23.550;2023-02-17T05:15:44;97919.16;;;7.56;52.41
21361;BME280;10839;43.206;23.550;2023-02-17T05:18:12;97928.31;;;7.71;52.29
21361;BME280;10839;43.206;23.550;2023-02-17T05:20:38;97920.25;;;8.05;50.54
21361;BME280;10839;43.206;23.550;2023-02-17T05:23:04;97927.84;;;8.10;50.56
21361;BME280;10839;43.206;23.550;2023-02-17T05:25:30;97921.66;;;7.83;51.59
21361;BME280;10839;43.206;23.550;2023-02-17T05:27:56;97920.69;;;7.85;51.14
21361;BME280;10839;43.206;23.550;2023-02-17T05:30:22;97932.16;;;8.03;50.74
21361;BME280;10839;43.206;23.550;2023-02-17T05:32:48;97932.16;;;8.03;50.77
21361;BME280;10839;43.206;23.550;2023-02-17T05:35:13;97922.63;;;7.74;50.78
21361;BME280;10839;43.206;23.550;2023-02-17T05:37:39;97932.16;;;7.77;51.31
21361;BME280;10839;43.206;23.550;2023-02-17T05:40:06;97935.03;;;8.43;48.48
21361;BME280;10839;43.206;23.550;2023-02-17T05:42:32;97944.34;;;8.64;47.76
21361;BME280;10839;43.206;23.550;2023-02-17T05:44:57;97940.91;;;8.13;48.64
21361;BME280;10839;43.206;23.550;2023-02-17T05:47:23;97937.56;;;8.44;48.21
21361;BME280;10839;43.206;23.550;2023-02-17T05:49:49;97950.59;;;8.81;47.37
21361;BME280;10839;43.206;23.550;2023-02-17T05:52:15;97950.94;;;9.10;46.03
21361;BME280;10839;43.206;23.550;2023-02-17T05:54:43;97960.38;;;9.06;46.35
21361;BME280;10839;43.206;23.550;2023-02-17T05:57:09;97961.72;;;9.58;45.38
21361;BME280;10839;43.206;23.550;2023-02-17T05:59:35;97959.63;;;10.16;44.54
21361;BME280;10839;43.206;23.550;2023-02-17T06:02:01;97966.91;;;9.84;44.67
21361;BME280;10839;43.206;23.550;2023-02-17T06:04:27;97966.09;;;9.27;45.61
21361;BME280;10839;43.206;23.550;2023-02-17T06:06:53;97976.84;;;9.51;45.29
21361;BME280;10839;43.206;23.550;2023-02-17T06:09:18;97977.53;;;9.61;44.51
21361;BME280;10839;43.206;23.550;2023-02-17T06:11:44;97973.31;;;9.43;44.35
21361;BME280;10839;43.206;23.550;2023-02-17T06:14:10;97970.81;;;9.49;43.90
21361;BME280;10839;43.206;23.550;2023-02-17T06:16:35;97989.56;;;10.13;42.87
21361;BME280;10839;43.206;23.550;2023-02-17T06:19:02;97994.25;;;10.03;42.75
21361;BME280;10839;43.206;23.550;2023-02-17T06:21:30;97993.63;;;10.09;41.90
21361;BME280;10839;43.206;23.550;2023-02-17T06:23:55;97996.66;;;10.53;41.55
21361;BME280;10839;43.206;23.550;2023-02-17T06:26:21;97999.59;;;11.66;39.75
21361;BME280;10839;43.206;23.550;2023-02-17T06:28:47;97995.22;;;12.02;38.60
21361;BME280;10839;43.206;23.550;2023-02-17T06:31:13;98000.47;;;13.62;37.04
21361;BME280;10839;43.206;23.550;2023-02-17T06:33:39;98003.00;;;16.34;32.72
21361;BME280;10839;43.206;23.550;2023-02-17T06:36:05;98003.69;;;17.19;31.17
21361;BME280;10839;43.206;23.550;2023-02-17T06:38:31;98014.53;;;18.57;30.31
21361;BME280;10839;43.206;23.550;2023-02-17T06:40:57;98007.56;;;20.10;27.37
21361;BME280;10839;43.206;23.550;2023-02-17T06:43:23;98009.81;;;20.55;27.32
21361;BME280;10839;43.206;23.550;2023-02-17T06:45:49;98014.34;;;19.78;27.87
21361;BME280;10839;43.206;23.550;2023-02-17T06:48:14;98008.16;;;20.77;26.54
21361;BME280;10839;43.206;23.550;2023-02-17T06:50:40;98015.22;;;21.47;25.70
21361;BME280;10839;43.206;23.550;2023-02-17T06:53:06;98018.66;;;22.55;24.69
21361;BME280;10839;43.206;23.550;2023-02-17T06:55:32;98027.28;;;22.80;24.11
21361;BME280;10839;43.206;23.550;2023-02-17T06:57:59;98029.91;;;23.68;23.22
21361;BME280;10839;43.206;23.550;2023-02-17T07:00:26;98028.00;;;24.43;22.20
21361;BME280;10839;43.206;23.550;2023-02-17T07:02:52;98031.78;;;25.00;21.00
21361;BME280;10839;43.206;23.550;2023-02-17T07:05:18;98031.91;;;24.52;21.31
21361;BME280;10839;43.206;23.550;2023-02-17T07:07:44;98018.28;;;24.67;21.62
21361;BME280;10839;43.206;23.550;2023-02-17T07:10:10;98016.47;;;25.19;20.61
21361;BME280;10839;43.206;23.550;2023-02-17T07:12:36;98014.34;;;25.32;20.65
21361;BME280;10839;43.206;23.550;2023-02-17T07:15:03;98018.06;;;25.10;20.61
21361;BME280;10839;43.206;23.550;2023-02-17T07:17:29;98010.47;;;25.89;19.71
21361;BME280;10839;43.206;23.550;2023-02-17T07:19:55;98024.66;;;27.28;18.56
21361;BME280;10839;43.206;23.550;2023-02-17T07:22:21;98019.72;;;26.50;18.03
21361;BME280;10839;43.206;23.550;2023-02-17T07:24:50;98021.91;;;27.13;17.54
21361;BME280;10839;43.206;23.550;2023-02-17T07:27:16;98016.81;;;27.60;17.47
21361;BME280;10839;43.206;23.550;2023-02-17T07:29:42;98023.50;;;27.54;16.82
21361;BME280;10839;43.206;23.550;2023-02-17T07:32:08;98019.00;;;27.68;16.67
21361;BME280;10839;43.206;23.550;2023-02-17T07:34:34;98017.47;;;27.27;17.07
21361;BME280;10839;43.206;23.550;2023-02-17T07:37:00;98029.03;;;27.54;16.91
21361;BME280;10839;43.206;23.550;2023-02-17T07:39:25;98030.13;;;28.66;15.93
21361;BME280;10839;43.206;23.550;2023-02-17T07:41:51;98027.75;;;28.01;16.18
21361;BME280;10839;43.206;23.550;2023-02-17T07:44:17;98029.81;;;28.24;16.04
21361;BME280;10839;43.206;23.550;2023-02-17T07:46:43;98040.00;;;28.77;15.52
21361;BME280;10839;43.206;23.550;2023-02-17T07:52:56;98031.59;;;28.05;16.14
21361;BME280;10839;43.206;23.550;2023-02-17T07:55:22;98031.63;;;28.00;16.37
21361;BME280;10839;43.206;23.550;2023-02-17T07:57:48;98029.41;;;27.97;16.24
21361;BME280;10839;43.206;23.550;2023-02-17T08:00:15;98028.16;;;27.64;16.14
21361;BME280;10839;43.206;23.550;2023-02-17T08:02:41;98030.19;;;26.28;17.20
21361;BME280;10839;43.206;23.550;2023-02-17T08:05:06;98031.50;;;27.56;16.71
21361;BME280;10839;43.206;23.550;2023-02-17T08:07:32;98033.22;;;26.26;17.12
21361;BME280;10839;43.206;23.550;2023-02-17T08:09:59;98030.47;;;26.36;17.62
21361;BME280;10839;43.206;23.550;2023-02-17T08:12:44;98020.03;;;25.62;17.87
21361;BME280;10839;43.206;23.550;2023-02-17T08:15:32;98023.94;;;25.76;18.04
21361;BME280;10839;43.206;23.550;2023-02-17T08:17:58;98028.03;;;26.70;17.06
21361;BME280;10839;43.206;23.550;2023-02-17T08:20:26;98034.63;;;26.44;16.64
21361;BME280;10839;43.206;23.550;2023-02-17T08:22:52;98022.28;;;25.70;17.54
21361;BME280;10839;43.206;23.550;2023-02-17T08:25:18;98023.91;;;25.66;17.54
21361;BME280;10839;43.206;23.550;2023-02-17T08:27:44;98020.13;;;25.30;17.69
21361;BME280;10839;43.206;23.550;2023-02-17T08:30:10;98025.00;;;25.65;17.40
21361;BME280;10839;43.206;23.550;2023-02-17T08:32:36;98029.44;;;25.71;17.95
21361;BME280;10839;43.206;23.550;2023-02-17T08:35:02;98039.00;;;26.15;17.27
21361;BME280;10839;43.206;23.550;2023-02-17T08:37:28;98022.34;;;25.90;17.63
21361;BME280;10839;43.206;23.550;2023-02-17T08:39:55;98030.47;;;25.55;17.86
21361;BME280;10839;43.206;23.550;2023-02-17T08:42:21;98038.28;;;25.73;17.94
21361;BME280;10839;43.206;23.550;2023-02-17T08:44:47;98041.06;;;25.78;18.20
21361;BME280;10839;43.206;23.550;2023-02-17T08:47:13;98036.53;;;26.38;17.55
21361;BME280;10839;43.206;23.550;2023-02-17T08:49:39;98046.16;;;26.11;17.72
21361;BME280;10839;43.206;23.550;2023-02-17T08:52:05;98041.63;;;25.85;17.57
21361;BME280;10839;43.206;23.550;2023-02-17T08:54:31;98031.03;;;25.52;18.42
21361;BME280;10839;43.206;23.550;2023-02-17T08:56:57;98051.84;;;24.64;18.87
21361;BME280;10839;43.206;23.550;2023-02-17T08:59:23;98039.84;;;24.44;19.27
21361;BME280;10839;43.206;23.550;2023-02-17T09:01:49;98040.31;;;25.41;18.72
21361;BME280;10839;43.206;23.550;2023-02-17T09:04:15;98050.09;;;25.16;18.64
21361;BME280;10839;43.206;23.550;2023-02-17T09:06:44;98050.66;;;25.18;19.01
21361;BME280;10839;43.206;23.550;2023-02-17T09:09:12;98046.63;;;24.94;18.83
21361;BME280;10839;43.206;23.550;2023-02-17T09:11:39;98044.50;;;24.43;19.51
21361;BME280;10839;43.206;23.550;2023-02-17T09:14:06;98043.50;;;25.22;18.96
21361;BME280;10839;43.206;23.550;2023-02-17T09:16:32;98038.72;;;24.71;19.72
21361;BME280;10839;43.206;23.550;2023-02-17T09:18:57;98048.50;;;24.89;19.03
21361;BME280;10839;43.206;23.550;2023-02-17T09:21:23;98053.34;;;24.45;19.77
21361;BME280;10839;43.206;23.550;2023-02-17T09:23:49;98056.41;;;24.75;19.70
21361;BME280;10839;43.206;23.550;2023-02-17T09:26:17;98059.44;;;25.62;19.01
21361;BME280;10839;43.206;23.550;2023-02-17T09:28:43;98063.06;;;25.21;19.27
21361;BME280;10839;43.206;23.550;2023-02-17T09:31:18;98054.88;;;24.63;19.76
21361;BME280;10839;43.206;23.550;2023-02-17T09:33:46;98059.44;;;25.15;19.45
21361;BME280;10839;43.206;23.550;2023-02-17T09:36:16;98058.28;;;25.06;19.26
21361;BME280;10839;43.206;23.550;2023-02-17T09:38:43;98070.28;;;23.89;19.69
21361;BME280;10839;43.206;23.550;2023-02-17T09:44:05;98067.88;;;24.14;19.61
21361;BME280;10839;43.206;23.550;2023-02-17T09:46:36;98078.50;;;24.27;19.75
21361;BME280;10839;43.206;23.550;2023-02-17T09:49:17;98077.22;;;24.13;19.87
21361;BME280;10839;43.206;23.550;2023-02-17T09:51:50;98070.56;;;24.36;19.91
21361;BME280;10839;43.206;23.550;2023-02-17T09:54:28;98074.22;;;24.41;19.99
21361;BME280;10839;43.206;23.550;2023-02-17T09:56:58;98076.69;;;24.16;19.97
21361;BME280;10839;43.206;23.550;2023-02-17T09:59:31;98056.47;;;24.27;20.13
21361;BME280;10839;43.206;23.550;2023-02-17T10:02:05;98057.28;;;24.54;20.14
21361;BME280;10839;43.206;23.550;2023-02-17T10:04:39;98054.28;;;24.29;19.85
21361;BME280;10839;43.206;23.550;2023-02-17T10:12:49;98051.19;;;23.77;20.49
21361;BME280;10839;43.206;23.550;2023-02-17T10:15:21;98054.06;;;24.09;20.33
21361;BME280;10839;43.206;23.550;2023-02-17T10:20:58;98046.66;;;23.66;20.18
21361;BME280;10839;43.206;23.550;2023-02-17T10:23:27;98043.44;;;23.96;20.46
21361;BME280;10839;43.206;23.550;2023-02-17T10:26:21;98049.47;;;23.50;20.93
21361;BME280;10839;43.206;23.550;2023-02-17T10:28:52;98048.34;;;23.94;20.79
21361;BME280;10839;43.206;23.550;2023-02-17T10:37:03;98039.75;;;24.07;20.69
21361;BME280;10839;43.206;23.550;2023-02-17T10:39:50;98037.94;;;23.96;20.61
21361;BME280;10839;43.206;23.550;2023-02-17T10:44:51;98043.59;;;23.63;20.77
21361;BME280;10839;43.206;23.550;2023-02-17T10:47:20;98038.47;;;23.93;20.85
21361;BME280;10839;43.206;23.550;2023-02-17T10:49:49;98029.69;;;23.96;20.89
21361;BME280;10839;43.206;23.550;2023-02-17T10:52:19;98029.50;;;23.81;20.79
21361;BME280;10839;43.206;23.550;2023-02-17T10:57:27;98026.72;;;23.33;21.24
21361;BME280;10839;43.206;23.550;2023-02-17T10:59:57;98022.72;;;23.24;21.70
21361;BME280;10839;43.206;23.550;2023-02-17T11:05:04;98030.56;;;23.75;21.22
21361;BME280;10839;43.206;23.550;2023-02-17T11:07:33;98022.84;;;24.20;21.09
21361;BME280;10839;43.206;23.550;2023-02-17T11:10:15;98033.09;;;24.03;21.21
21361;BME280;10839;43.206;23.550;2023-02-17T11:12:44;98021.09;;;23.66;21.48
21361;BME280;10839;43.206;23.550;2023-02-17T11:15:22;98019.84;;;23.52;21.53
21361;BME280;10839;43.206;23.550;2023-02-17T11:17:49;98010.16;;;23.71;21.62
21361;BME280;10839;43.206;23.550;2023-02-17T11:22:44;98014.38;;;23.78;21.36
21361;BME280;10839;43.206;23.550;2023-02-17T11:27:51;98008.19;;;23.66;21.50
21361;BME280;10839;43.206;23.550;2023-02-17T11:30:18;98004.19;;;23.79;21.63
21361;BME280;10839;43.206;23.550;2023-02-17T11:32:44;97996.44;;;23.28;21.87
21361;BME280;10839;43.206;23.550;2023-02-17T11:38:23;97995.13;;;22.42;22.44
21361;BME280;10839;43.206;23.550;2023-02-17T11:41:02;97989.88;;;21.40;23.39
21361;BME280;10839;43.206;23.550;2023-02-17T11:43:30;97987.78;;;22.31;22.90
21361;BME280;10839;43.206;23.550;2023-02-17T11:46:13;97986.72;;;22.82;22.44
21361;BME280;10839;43.206;23.550;2023-02-17T12:05:10;97974.66;;;22.33;23.58
21361;BME280;10839;43.206;23.550;2023-02-17T12:07:44;97962.13;;;22.37;23.31
21361;BME280;10839;43.206;23.550;2023-02-17T12:15:37;97955.59;;;21.37;24.13
21361;BME280;10839;43.206;23.550;2023-02-17T12:21:38;97951.91;;;20.69;24.70
21361;BME280;10839;43.206;23.550;2023-02-17T12:26:43;97943.41;;;20.13;24.65
21361;BME280;10839;43.206;23.550;2023-02-17T12:32:36;97947.63;;;20.62;24.43
21361;BME280;10839;43.206;23.550;2023-02-17T12:35:27;97944.22;;;19.49;25.71
21361;BME280;10839;43.206;23.550;2023-02-17T12:38:12;97938.00;;;20.24;25.29
21361;BME280;10839;43.206;23.550;2023-02-17T12:40:46;97924.03;;;20.03;25.23
21361;BME280;10839;43.206;23.550;2023-02-17T12:45:43;97925.44;;;19.41;26.47
21361;BME280;10839;43.206;23.550;2023-02-17T12:50:38;97922.28;;;18.90;26.55
21361;BME280;10839;43.206;23.550;2023-02-17T12:53:13;97928.78;;;19.07;26.98
21361;BME280;10839;43.206;23.550;2023-02-17T12:55:46;97930.88;;;19.23;26.55
21361;BME280;10839;43.206;23.550;2023-02-17T12:58:21;97928.50;;;18.43;27.54
21361;BME280;10839;43.206;23.550;2023-02-17T13:01:04;97929.44;;;18.55;27.55
21361;BME280;10839;43.206;23.550;2023-02-17T13:03:33;97936.47;;;18.62;27.29
21361;BME280;10839;43.206;23.550;2023-02-17T13:06:38;97925.38;;;17.90;28.35
21361;BME280;10839;43.206;23.550;2023-02-17T13:11:51;97926.78;;;18.66;27.59
21361;BME280;10839;43.206;23.550;2023-02-17T13:14:26;97931.59;;;17.97;28.63
21361;BME280;10839;43.206;23.550;2023-02-17T13:16:52;97923.34;;;18.28;28.18
21361;BME280;10839;43.206;23.550;2023-02-17T13:19:33;97927.44;;;17.95;28.51
21361;BME280;10839;43.206;23.550;2023-02-17T13:22:00;97934.28;;;18.04;28.30
21361;BME280;10839;43.206;23.550;2023-02-17T13:24:35;97932.38;;;18.04;28.39
21361;BME280;10839;43.206;23.550;2023-02-17T13:27:32;97930.84;;;17.21;29.54
21361;BME280;10839;43.206;23.550;2023-02-17T13:30:04;97935.22;;;17.66;29.01
21361;BME280;10839;43.206;23.550;2023-02-17T13:32:33;97933.09;;;17.68;28.84
21361;BME280;10839;43.206;23.550;2023-02-17T13:35:06;97935.06;;;17.17;29.54
21361;BME280;10839;43.206;23.550;2023-02-17T13:40:00;97917.75;;;17.49;29.24
21361;BME280;10839;43.206;23.550;2023-02-17T13:42:38;97920.91;;;17.02;29.75
21361;BME280;10839;43.206;23.550;2023-02-17T13:45:24;97921.50;;;17.48;29.29
21361;BME280;10839;43.206;23.550;2023-02-17T13:47:53;97913.50;;;16.78;29.48
21361;BME280;10839;43.206;23.550;2023-02-17T13:50:34;97914.16;;;17.11;29.45
21361;BME280;10839;43.206;23.550;2023-02-17T13:53:18;97908.56;;;17.37;28.82
21361;BME280;10839;43.206;23.550;2023-02-17T13:55:45;97907.56;;;16.94;29.45
21361;BME280;10839;43.206;23.550;2023-02-17T13:58:11;97910.25;;;17.38;29.02
21361;BME280;10839;43.206;23.550;2023-02-17T14:00:37;97908.66;;;17.24;28.98
21361;BME280;10839;43.206;23.550;2023-02-17T14:03:19;97915.91;;;16.99;29.29
21361;BME280;10839;43.206;23.550;2023-02-17T14:05:47;97914.84;;;17.07;29.42
21361;BME280;10839;43.206;23.550;2023-02-17T14:08:27;97916.78;;;16.93;29.42
21361;BME280;10839;43.206;23.550;2023-02-17T14:26:13;97907.81;;;15.96;29.90
21361;BME280;10839;43.206;23.550;2023-02-17T14:28:39;97908.22;;;15.87;30.45
21361;BME280;10839;43.206;23.550;2023-02-17T14:31:09;97905.31;;;15.69;30.77
21361;BME280;10839;43.206;23.550;2023-02-17T14:33:36;97902.78;;;15.61;30.89
21361;BME280;10839;43.206;23.550;2023-02-17T14:36:04;97902.41;;;15.64;30.79
21361;BME280;10839;43.206;23.550;2023-02-17T14:38:39;97899.81;;;15.36;30.76
21361;BME280;10839;43.206;23.550;2023-02-17T14:41:07;97900.84;;;15.28;31.22
21361;BME280;10839;43.206;23.550;2023-02-17T14:43:36;97898.97;;;15.35;31.26
21361;BME280;10839;43.206;23.550;2023-02-17T14:46:02;97897.72;;;15.18;31.18
21361;BME280;10839;43.206;23.550;2023-02-17T14:48:28;97895.59;;;15.14;31.62
21361;BME280;10839;43.206;23.550;2023-02-17T14:50:55;97893.72;;;15.08;31.82
21361;BME280;10839;43.206;23.550;2023-02-17T14:53:26;97900.56;;;14.97;31.25
21361;BME280;10839;43.206;23.550;2023-02-17T14:58:34;97899.72;;;14.90;31.62
21361;BME280;10839;43.206;23.550;2023-02-17T15:01:00;97904.31;;;14.96;31.65
21361;BME280;10839;43.206;23.550;2023-02-17T15:03:26;97900.75;;;14.89;31.91
21361;BME280;10839;43.206;23.550;2023-02-17T15:05:52;97900.25;;;14.66;32.44
21361;BME280;10839;43.206;23.550;2023-02-17T15:08:20;97896.72;;;14.72;32.54
21361;BME280;10839;43.206;23.550;2023-02-17T15:10:47;97907.56;;;14.72;32.61
21361;BME280;10839;43.206;23.550;2023-02-17T15:13:16;97906.44;;;14.47;33.00
21361;BME280;10839;43.206;23.550;2023-02-17T15:15:43;97904.09;;;14.44;33.47